Peshastin, WA

2:33 PM PDT on September 16, 2014 (GMT -0700)
Mountain Home Lodge Leavenworth, WA | Change Station
CLOSE
Current Station
Personal Weather Station
Location: Leavenworth, WA
Elevation: 2044 ft
Nearby Weather Stations

Elev 2044 ft 47.57 °N, 120.65 °W | Updated 2 minutes ago

Clear
Clear
85.3 °F
Feels Like 82 °F
N
1.0
Wind Variable Wind from WSW
Gusts 7.0 mph

Today
High -- | Low -- °F
--% Chance of Precip.
Yesterday
High -- | Low -- °F
Precip. -- in
6:41 AM 7:12 PM
Last Quarter, 42% visible
Pressure 29.78 in
Visibility 10.0 miles
Clouds Clear
Heat Index 82 °F
Dew Point 32 °F
Humidity 15%
Rainfall 0.00 in
Snow Depth 0 in , 0 in , 1 in
UV 6 out of 12
Pollen 2.90 out of 12
Air Quality Not available.
Flu Activity Not available.
METAR KEAT 162055Z AUTO 00000KT 10SM CLR 29/03 A2981 RMK AO2 SLP085 T02940028 58020

More Conditions Fewer Conditions

Pressure 29.78 in
Visibility 10.0 miles
Clouds Clear
Heat Index 82 °F
Dew Point 32 °F
Humidity 15%
Rainfall 0.00 in
Snow Depth 0 in , 0 in , 1 in
UV 6 out of 12
Pollen 2.90 out of 12
Air Quality Not available.
Flu Activity Not available.
METAR KEAT 162055Z AUTO 00000KT 10SM CLR 29/03 A2981 RMK AO2 SLP085 T02940028 58020

More Conditions Fewer Conditions

10-Day Weather Forecast

Almanac

Astronomy

Sep. 16, 2014 Rise Set
Actual Time 6:41 AM PDT 7:12 PM PDT
Civil Twilight 6:10 AM PDT 7:43 PM PDT
Nautical Twilight 5:33 AM PDT 8:19 PM PDT
Astronomical Twilight 4:55 AM PDT 8:57 PM PDT
Moon No Moon Rise 2:58 PM PDT
Length of Visible Light 13h 32m
Length of Day
12h 31m
Tomorrow will be 3m 23s shorter.
Last Quarter, 42% of the Moon is Illuminated
Today
Last Quarter
Sep 24
New
Oct 1
First Quarter
Oct 8
Full
Oct 15
Last Quarter

Today's Extremes

State Highs State Lows

Community

WunderPhotos

Upload Photos

1,753,895 photos uploaded!

Nearby

Snow Depth

Station Depth Elevation
Alpine Meadows 0 in 3500 ft
Stevens Pass 0 in 4070 ft
Pope Ridge 0 in 3540 ft
Green Lake 0 in 6000 ft
Olallie Meadows 1 in 3700 ft

Earthquake Activity

City Distance Mag. Time & Date
Morton, Washington 119 miles 3.0 5:43 AM PDT
2014-09-16
Minimum magnitude displayed is 2.5.

Coastal Water Temperatures

Place Temperature
No Stations Reporting

Nearby Weather Stations